createdAt,value
2022-11-01T00:04:10.993Z,14.68
2022-11-01T00:09:12.663Z,13.43
2022-11-01T00:14:16.094Z,13.45
2022-11-01T00:19:25.462Z,13.52
2022-11-01T00:24:27.047Z,13.00
2022-11-01T00:29:28.744Z,13.45
2022-11-01T00:34:30.341Z,15.65
2022-11-01T00:39:38.426Z,15.13
2022-11-01T00:44:44.764Z,13.93
2022-11-01T00:49:48.615Z,13.85
2022-11-01T00:54:52.583Z,15.82
2022-11-01T01:00:00.970Z,15.45
2022-11-01T01:05:04.124Z,14.82
2022-11-01T01:10:06.899Z,14.25
2022-11-01T01:15:13.662Z,14.45
2022-11-01T01:20:15.319Z,13.70
2022-11-01T01:25:17.546Z,13.73
2022-11-01T01:30:19.111Z,13.48
2022-11-01T01:35:26.238Z,12.48
2022-11-01T01:40:27.901Z,11.82
2022-11-01T01:45:41.025Z,12.05
2022-11-01T01:50:52.590Z,13.48
2022-11-01T01:56:06.273Z,14.27
2022-11-01T02:01:08.095Z,13.73
2022-11-01T02:06:13.200Z,13.95
2022-11-01T02:11:23.786Z,13.65
2022-11-01T02:16:56.608Z,13.85
2022-11-01T02:22:06.901Z,13.95
2022-11-01T02:27:25.574Z,14.30
2022-11-01T02:32:57.967Z,10.88
2022-11-01T02:38:07.561Z,11.98
2022-11-01T02:43:16.744Z,11.85
2022-11-01T02:48:23.575Z,11.15
2022-11-01T02:53:29.339Z,11.13
2022-11-01T02:58:33.939Z,10.23
2022-11-01T03:03:36.153Z,10.63
2022-11-01T03:08:43.672Z,11.15
2022-11-01T03:13:53.691Z,9.77
2022-11-01T03:19:04.971Z,10.40
2022-11-01T03:24:23.451Z,10.18
2022-11-01T03:29:30.833Z,10.57
2022-11-01T03:34:36.813Z,10.68
2022-11-01T03:39:47.354Z,10.35
2022-11-01T03:44:55.153Z,10.75
2022-11-01T03:50:28.311Z,11.43
2022-11-01T03:55:30.859Z,9.68
2022-11-01T04:00:35.171Z,11.10
2022-11-01T04:05:40.861Z,11.20
2022-11-01T04:10:44.791Z,9.88
2022-11-01T04:16:06.525Z,10.63
2022-11-01T04:21:16.578Z,9.77
2022-11-01T04:26:22.412Z,10.17
2022-11-01T04:31:30.448Z,9.68
2022-11-01T04:36:37.237Z,8.70
2022-11-01T04:41:41.265Z,8.48
2022-11-01T04:46:42.828Z,8.88
2022-11-01T04:51:44.412Z,8.00
2022-11-01T04:56:51.059Z,7.60
2022-11-01T05:01:52.770Z,8.45
2022-11-01T05:06:54.445Z,6.93
2022-11-01T05:11:56.011Z,6.00
2022-11-01T05:17:00.164Z,6.78
2022-11-01T05:22:04.789Z,6.65
2022-11-01T05:27:08.816Z,5.88
2022-11-01T05:32:12.846Z,6.15
2022-11-01T05:37:15.791Z,5.82
2022-11-01T05:42:17.341Z,5.80
2022-11-01T05:47:18.918Z,5.93
2022-11-01T05:52:22.958Z,4.82
2022-11-01T05:57:24.502Z,5.78
2022-11-01T06:02:27.431Z,5.50
2022-11-01T06:07:29.133Z,5.30
2022-11-01T06:12:30.609Z,5.60
2022-11-01T06:17:32.125Z,4.90
2022-11-01T06:22:36.314Z,5.05
2022-11-01T06:27:37.901Z,5.50
2022-11-01T06:32:41.516Z,4.63
2022-11-01T06:37:43.027Z,3.92
2022-11-01T06:42:46.320Z,3.67
2022-11-01T06:47:50.789Z,4.13
2022-11-01T06:52:56.202Z,4.15
2022-11-01T06:58:05.468Z,4.00
2022-11-01T07:03:11.584Z,3.83
2022-11-01T07:08:14.376Z,4.38
2022-11-01T07:13:18.310Z,4.10
2022-11-01T07:18:19.935Z,5.00
2022-11-01T07:23:24.285Z,4.65
2022-11-01T07:28:27.421Z,5.20
2022-11-01T07:33:31.340Z,5.25
2022-11-01T07:38:35.596Z,4.32
2022-11-01T07:43:39.545Z,4.90
2022-11-01T07:48:41.099Z,10.70
2022-11-01T07:53:45.617Z,7.30
2022-11-01T07:58:47.388Z,7.85
2022-11-01T08:03:52.054Z,6.47
2022-11-01T08:08:56.684Z,5.50
2022-11-01T08:14:04.336Z,4.93
2022-11-01T08:19:07.865Z,6.18
2022-11-01T08:24:11.926Z,5.90
2022-11-01T08:29:15.764Z,5.40
2022-11-01T08:34:22.011Z,6.50
2022-11-01T08:39:27.958Z,8.20
2022-11-01T08:44:37.210Z,7.18
2022-11-01T08:49:41.128Z,7.70
2022-11-01T08:54:47.526Z,6.38
2022-11-01T09:00:01.507Z,6.68
2022-11-01T09:05:05.302Z,6.45
2022-11-01T09:10:08.933Z,6.55
2022-11-01T09:15:14.984Z,7.10
2022-11-01T09:20:16.499Z,7.13
2022-11-01T09:25:20.337Z,7.72
2022-11-01T09:30:21.931Z,7.50
2022-11-01T09:35:23.727Z,7.47
2022-11-01T09:40:43.986Z,7.60
2022-11-01T09:45:45.732Z,6.60
2022-11-01T09:50:49.538Z,6.22
2022-11-01T09:55:56.984Z,7.90
2022-11-01T10:01:41.341Z,6.25
2022-11-01T10:06:51.851Z,5.60
2022-11-01T10:12:02.431Z,5.90
2022-11-01T10:17:27.585Z,6.10
2022-11-01T10:22:34.400Z,6.50
2022-11-01T10:27:53.490Z,6.22
2022-11-01T10:33:37.358Z,6.82
2022-11-01T10:39:36.915Z,6.80
2022-11-01T10:44:36.175Z,7.45
2022-11-01T10:50:05.911Z,6.55
2022-11-01T10:55:11.337Z,7.65
2022-11-01T11:00:20.961Z,7.80
2022-11-01T11:05:25.865Z,7.47
2022-11-01T11:10:29.007Z,7.28
2022-11-01T11:15:52.701Z,7.18
2022-11-01T11:21:00.252Z,7.70
2022-11-01T11:26:11.704Z,8.25
2022-11-01T11:31:22.573Z,7.63
2022-11-01T11:36:36.837Z,7.85
2022-11-01T11:41:39.279Z,8.50
2022-11-01T11:46:56.802Z,9.77
2022-11-01T11:51:59.104Z,8.90
2022-11-01T11:57:30.218Z,8.95
2022-11-01T12:02:39.443Z,10.23
2022-11-01T12:07:51.668Z,10.65
2022-11-01T12:12:55.520Z,11.23
2022-11-01T12:18:10.286Z,11.88
2022-11-01T12:23:35.039Z,14.27
2022-11-01T12:28:44.513Z,14.52
2022-11-01T12:33:54.344Z,16.25
2022-11-01T12:39:03.416Z,15.02
2022-11-01T12:44:32.342Z,15.23
2022-11-01T12:50:01.684Z,15.35
2022-11-01T12:55:20.769Z,14.30
2022-11-01T13:00:26.827Z,15.98
2022-11-01T13:05:53.908Z,17.08
2022-11-01T13:11:04.498Z,16.10
2022-11-01T13:16:25.843Z,16.20
2022-11-01T13:21:38.082Z,17.23
2022-11-01T13:26:54.723Z,15.75
2022-11-01T13:32:06.108Z,14.65
2022-11-01T13:37:23.659Z,14.02
2022-11-01T13:42:34.813Z,14.52
2022-11-01T13:48:19.716Z,14.77
2022-11-01T13:53:39.089Z,15.32
2022-11-01T13:58:45.371Z,16.50
2022-11-01T14:03:49.840Z,16.15
2022-11-01T14:09:32.229Z,14.65
2022-11-01T14:14:43.575Z,17.52
2022-11-01T14:20:10.734Z,17.00
2022-11-01T14:25:12.589Z,16.35
2022-11-01T14:30:15.550Z,16.65
2022-11-01T14:35:37.311Z,16.50
2022-11-01T14:40:46.285Z,17.20
2022-11-01T14:45:54.045Z,17.70
2022-11-01T14:51:05.477Z,17.95
2022-11-01T14:56:21.424Z,17.83
2022-11-01T15:01:25.831Z,17.58
2022-11-01T15:06:33.042Z,18.70
2022-11-01T15:11:37.192Z,18.38
2022-11-01T15:16:44.903Z,18.98
2022-11-01T15:21:48.770Z,19.30
2022-11-01T15:26:54.971Z,18.85
2022-11-01T15:32:03.068Z,19.00
2022-11-01T15:37:20.682Z,17.42
2022-11-01T15:42:24.007Z,17.13
2022-11-01T15:47:30.455Z,18.90
2022-11-01T15:52:34.650Z,21.92
2022-11-01T15:57:38.776Z,17.75
2022-11-01T16:03:10.799Z,17.30
2022-11-01T16:08:32.617Z,18.33
2022-11-01T16:13:34.748Z,17.85
2022-11-01T16:18:40.319Z,19.27
2022-11-01T16:23:50.921Z,17.85
2022-11-01T16:28:55.180Z,19.70
2022-11-01T16:33:59.861Z,20.15
2022-11-01T16:39:01.467Z,19.67
2022-11-01T16:44:15.834Z,20.23
2022-11-01T16:49:26.664Z,19.25
2022-11-01T16:54:28.605Z,19.65
2022-11-01T16:59:44.292Z,19.33
2022-11-01T17:04:49.265Z,19.40
2022-11-01T17:09:50.805Z,22.30
2022-11-01T17:14:53.207Z,21.45
2022-11-01T17:19:59.920Z,20.98
2022-11-01T17:25:03.457Z,23.63
2022-11-01T17:30:06.261Z,21.95
2022-11-01T17:35:15.753Z,22.63
2022-11-01T17:40:22.487Z,20.27
2022-11-01T17:45:24.136Z,20.95
2022-11-01T17:50:25.629Z,19.00
2022-11-01T17:55:27.376Z,22.23
2022-11-01T18:00:29.097Z,20.90
2022-11-01T18:05:34.186Z,20.75
2022-11-01T18:10:49.604Z,18.95
2022-11-01T18:16:20.093Z,21.45
2022-11-01T18:21:33.034Z,19.70
2022-11-01T18:26:34.564Z,17.90
2022-11-01T18:31:44.696Z,18.42
2022-11-01T18:36:58.641Z,19.25
2022-11-01T18:42:06.796Z,19.75
2022-11-01T18:47:25.793Z,18.05
2022-11-01T18:52:33.180Z,18.63
2022-11-01T18:57:35.098Z,18.48
2022-11-01T19:02:40.015Z,18.85
2022-11-01T19:08:09.094Z,20.25
2022-11-01T19:13:12.825Z,18.90
2022-11-01T19:18:22.558Z,18.65
2022-11-01T19:23:40.137Z,20.52
2022-11-01T19:28:44.705Z,20.95
2022-11-01T19:33:55.316Z,20.42
2022-11-01T19:39:03.118Z,19.98
2022-11-01T19:44:18.196Z,18.50
2022-11-01T19:49:30.949Z,17.30
2022-11-01T19:54:36.101Z,17.90
2022-11-01T19:59:39.623Z,17.65
2022-11-01T20:04:45.763Z,16.88
2022-11-01T20:09:58.267Z,17.20
2022-11-01T20:15:00.314Z,13.32
2022-11-01T20:20:05.009Z,14.57
2022-11-01T20:25:09.797Z,12.98
2022-11-01T20:30:11.657Z,14.60
2022-11-01T20:35:15.757Z,14.50
2022-11-01T20:40:21.923Z,15.48
2022-11-01T20:45:27.568Z,13.10
2022-11-01T20:50:29.674Z,12.10
2022-11-01T20:55:31.664Z,12.23
2022-11-01T21:00:33.305Z,14.25
2022-11-01T21:05:37.186Z,10.27
2022-11-01T21:10:40.251Z,11.07
2022-11-01T21:15:47.988Z,11.60
2022-11-01T21:20:53.798Z,12.93
2022-11-01T21:26:01.455Z,10.32
2022-11-01T21:31:31.472Z,9.93
2022-11-01T21:36:35.351Z,9.23
2022-11-01T21:41:49.714Z,14.60
2022-11-01T21:47:11.807Z,10.70
2022-11-01T21:52:16.216Z,9.88
2022-11-01T21:57:19.947Z,13.65
2022-11-01T22:02:23.852Z,10.30
2022-11-01T22:07:27.720Z,10.35
2022-11-01T22:12:33.291Z,11.13
2022-11-01T22:17:35.080Z,12.57
2022-11-01T22:22:39.082Z,10.38
2022-11-01T22:27:40.886Z,8.52
2022-11-01T22:32:44.828Z,10.05
2022-11-01T22:37:48.058Z,8.13
2022-11-01T22:42:55.267Z,7.63
2022-11-01T22:48:00.035Z,7.50
2022-11-01T22:53:33.983Z,6.97
2022-11-01T22:58:37.876Z,11.68
2022-11-01T23:03:40.729Z,11.73
2022-11-01T23:08:49.591Z,8.80
2022-11-01T23:14:14.765Z,8.35
2022-11-01T23:19:18.599Z,9.43
2022-11-01T23:24:23.726Z,7.88
2022-11-01T23:29:25.315Z,7.72
2022-11-01T23:34:28.036Z,6.93
2022-11-01T23:39:36.306Z,8.30
2022-11-01T23:44:40.093Z,7.78
2022-11-01T23:49:43.142Z,7.05
2022-11-01T23:54:47.410Z,7.00
2022-11-01T23:59:52.909Z,6.45
